Main page
METAR-TAF:

METAR-TAF

Airports :

Lemnos, Greece

Lemnos International Airport

latitude: 39-55N, longitude: 025-14E, elevation: 5 m

Current weather observation

The report was made 40 minutes ago, at 09:20 UTC
Wind 16 kt from the Northeast with gusts up to 26 kt
Temperature 19°C
Humidity 64%
Pressure 1022 hPa
Visibility 10 km or more
no clouds below 1500 m and no cumulonimbus

METAR: LGLM 190920Z 04016G26KT CAVOK 19/12 Q1022

Time: 13:00 (10:00 UTC)

Forecast

The report was made 2 hours and 0 minutes ago, at 08:00 UTC
Forecast valid from 19 at 09 UTC to 19 at 18 UTC
Wind 15 kt from the North/Northeast
Visibility 10 km or more
Few clouds at a height of 2000 ft
Temporary
from 19 at 09 UTC to 19 at 12 UTC
Wind 18 kt from the North/Northeast with gusts up to 28 kt

TAF: LGLM 190800Z 1909/1918 03015KT 9999 FEW020 TEMPO 1909/1912 03018G28KT

Weather observations and forecasts of more than 4000 airports (METAR and TAF reports).

The available stations are represented by yellow and red dots on the map.

Hover mouse over dot to see the name of the station.

Then click to see weather observations and forecasts.

To change the map : click on the green buttons with a black cross to zoom in, on the green button with a dash to zoom out, or on the green arrows for adjacent maps.


METAR-TAF: